Time;durP1;ratioP1;P1;durP2;ratioP2;P2;SDS_P1;SDS_P2;PMS_P1;PMS_P2;Temp;Humidity;BMP_temperature;BMP_pressure;BME280_temperature;BME280_humidity;BME280_pressure;Samples;Min_cycle;Max_cycle;Signal;HPM_P1;HPM_P2
2021/01/07 00:03:01;;;;;;;18.60;9.77;;;1.10;99.90;;;;;;12308539;28;20130;-86
2021/01/07 00:09:02;;;;;;;15.00;8.02;;;1.10;99.90;;;;;;12299952;28;20038;-86
2021/01/07 00:15:05;;;;;;;14.18;8.32;;;1.10;99.90;;;;;;12309785;28;20046;-87
2021/01/07 00:21:06;;;;;;;13.95;8.73;;;1.10;99.90;;;;;;12284802;28;20208;-86
2021/01/07 00:27:07;;;;;;;17.50;9.95;;;1.10;99.90;;;;;;12298425;28;20116;-87
2021/01/07 00:33:11;;;;;;;16.65;9.48;;;1.00;99.90;;;;;;12305583;28;20066;-87
2021/01/07 00:39:12;;;;;;;16.45;9.23;;;1.10;99.90;;;;;;12323995;28;21059;-87
2021/01/07 00:45:14;;;;;;;16.80;9.00;;;1.10;99.90;;;;;;12310510;28;20734;-86
2021/01/07 00:51:15;;;;;;;16.13;8.40;;;1.10;99.90;;;;;;12313721;28;20042;-86
2021/01/07 00:57:16;;;;;;;14.15;8.00;;;1.00;99.90;;;;;;12304011;28;20083;-88
2021/01/07 01:03:21;;;;;;;16.75;8.93;;;1.10;99.90;;;;;;12303802;28;20177;-86
2021/01/07 01:09:22;;;;;;;16.75;8.95;;;1.10;99.90;;;;;;12304537;28;20201;-86
2021/01/07 01:15:23;;;;;;;17.85;9.98;;;1.10;99.90;;;;;;12298143;28;20718;-86
2021/01/07 01:21:25;;;;;;;17.05;9.35;;;1.10;99.90;;;;;;12294785;28;20101;-87
2021/01/07 01:27:30;;;;;;;16.88;9.90;;;1.00;99.90;;;;;;12307895;28;20471;-86
2021/01/07 01:33:31;;;;;;;14.18;7.93;;;1.00;99.90;;;;;;12317880;28;20135;-87
2021/01/07 01:39:32;;;;;;;14.10;8.60;;;1.10;99.90;;;;;;12286085;28;20181;-86
2021/01/07 01:45:33;;;;;;;15.05;8.63;;;1.00;99.90;;;;;;12294222;28;20086;-87
2021/01/07 01:51:35;;;;;;;13.40;7.40;;;1.00;99.90;;;;;;12313951;28;20535;-86
2021/01/07 01:57:37;;;;;;;13.23;7.97;;;1.00;99.90;;;;;;12291479;28;20062;-87
2021/01/07 02:03:42;;;;;;;12.55;8.10;;;1.00;99.90;;;;;;12305502;28;20055;-86
2021/01/07 02:09:44;;;;;;;15.70;9.53;;;1.00;99.90;;;;;;12284408;28;20054;-85
2021/01/07 02:15:45;;;;;;;15.27;9.63;;;1.00;99.90;;;;;;12269321;28;20479;-88
2021/01/07 02:21:47;;;;;;;16.95;9.77;;;1.00;99.90;;;;;;12275660;28;20057;-87
2021/01/07 02:27:50;;;;;;;15.18;9.40;;;0.80;99.90;;;;;;12282070;28;20050;-87
2021/01/07 02:33:51;;;;;;;14.20;8.82;;;0.80;99.90;;;;;;12284658;28;20746;-87
2021/01/07 02:39:52;;;;;;;15.60;8.40;;;0.80;99.90;;;;;;12270637;28;20586;-86
2021/01/07 02:45:54;;;;;;;13.95;8.25;;;0.80;99.90;;;;;;12300549;28;20118;-86
2021/01/07 02:51:55;;;;;;;13.88;7.95;;;0.80;99.90;;;;;;12301783;28;20516;-87
2021/01/07 02:57:57;;;;;;;13.55;7.50;;;0.70;99.90;;;;;;12306040;28;20047;-86
2021/01/07 03:03:59;;;;;;;12.35;6.88;;;0.70;99.90;;;;;;12294855;28;20538;-87
2021/01/07 03:10:00;;;;;;;11.32;7.10;;;0.80;99.90;;;;;;12282647;28;20047;-85
2021/01/07 03:16:02;;;;;;;12.18;7.20;;;0.80;99.90;;;;;;12272275;28;20050;-86
2021/01/07 03:22:04;;;;;;;12.40;7.20;;;0.90;99.90;;;;;;12278645;28;20074;-85
2021/01/07 03:28:05;;;;;;;11.82;7.22;;;0.80;99.90;;;;;;12268817;28;20074;-85
2021/01/07 03:34:07;;;;;;;12.60;7.85;;;0.70;99.90;;;;;;12298381;28;20141;-86
2021/01/07 03:40:09;;;;;;;11.50;7.22;;;0.80;99.90;;;;;;12285016;28;20120;-86
2021/01/07 03:46:10;;;;;;;13.18;7.93;;;0.60;99.90;;;;;;12296423;28;20174;-86
2021/01/07 03:52:11;;;;;;;13.23;7.63;;;0.60;99.90;;;;;;12306360;28;20054;-86
2021/01/07 03:58:13;;;;;;;12.23;7.72;;;0.70;99.90;;;;;;12285786;28;20078;-87
2021/01/07 04:04:14;;;;;;;12.18;7.53;;;0.70;99.90;;;;;;12302604;28;20138;-87
2021/01/07 04:10:15;;;;;;;10.95;7.13;;;0.60;99.90;;;;;;12313470;28;20085;-87
2021/01/07 04:16:17;;;;;;;12.45;7.95;;;0.80;99.90;;;;;;12299862;28;20116;-86
2021/01/07 04:22:18;;;;;;;13.50;7.65;;;0.70;99.90;;;;;;12275226;28;20055;-86
2021/01/07 04:28:19;;;;;;;12.90;7.53;;;0.60;99.90;;;;;;12292982;28;20085;-87
2021/01/07 04:34:20;;;;;;;13.10;7.75;;;0.70;99.90;;;;;;12305761;28;20092;-87
2021/01/07 04:40:22;;;;;;;12.15;7.32;;;0.70;99.90;;;;;;12339423;28;20444;-88
2021/01/07 04:46:24;;;;;;;12.00;7.72;;;0.80;99.90;;;;;;12276504;28;20109;-88
2021/01/07 04:52:26;;;;;;;10.93;7.28;;;0.90;99.90;;;;;;12297904;28;20138;-87
2021/01/07 04:58:27;;;;;;;13.20;6.78;;;0.90;99.90;;;;;;12280505;28;20055;-88
2021/01/07 05:04:28;;;;;;;10.98;6.90;;;1.00;99.90;;;;;;12279326;28;20463;-88
2021/01/07 05:10:30;;;;;;;11.85;7.00;;;0.90;99.90;;;;;;12290978;28;20526;-87
2021/01/07 05:16:32;;;;;;;11.68;6.72;;;0.90;99.90;;;;;;12308493;28;20055;-88
2021/01/07 05:22:41;;;;;;;13.25;7.15;;;0.90;99.90;;;;;;12289463;28;20050;-87
2021/01/07 05:28:43;;;;;;;12.95;7.03;;;1.00;99.90;;;;;;12308630;28;20082;-88
2021/01/07 05:34:48;;;;;;;11.55;6.53;;;0.90;99.90;;;;;;12297410;28;20616;-88
2021/01/07 05:40:49;;;;;;;;;;;0.80;99.90;;;;;;12293220;28;20047;-88
2021/01/07 05:46:51;;;;;;;11.93;7.25;;;0.90;99.90;;;;;;12299983;28;19927;-88
2021/01/07 05:52:52;;;;;;;12.02;6.90;;;0.90;99.90;;;;;;12303180;28;20131;-88
2021/01/07 05:58:55;;;;;;;11.30;7.07;;;0.90;99.90;;;;;;12297591;28;20146;-87
2021/01/07 06:05:00;;;;;;;11.98;7.13;;;0.90;99.90;;;;;;12321961;28;20049;-87
2021/01/07 06:11:03;;;;;;;10.93;6.78;;;0.90;99.90;;;;;;12332594;28;20158;-87
2021/01/07 06:17:06;;;;;;;10.48;6.93;;;0.80;99.90;;;;;;12279545;28;20182;-87
2021/01/07 06:23:17;;;;;;;12.30;7.10;;;1.00;99.90;;;;;;12281740;28;20197;-87
2021/01/07 06:29:19;;;;;;;11.30;6.88;;;0.80;99.90;;;;;;12290789;28;20039;-87
2021/01/07 06:35:20;;;;;;;13.25;7.10;;;0.80;99.90;;;;;;12289449;28;20047;-87
2021/01/07 06:41:22;;;;;;;11.75;6.78;;;0.80;99.90;;;;;;12281287;28;20070;-88
2021/01/07 06:47:24;;;;;;;10.93;7.15;;;0.70;99.90;;;;;;12297567;28;20059;-87
2021/01/07 06:53:26;;;;;;;13.43;7.32;;;0.70;99.90;;;;;;12291367;28;20039;-87
2021/01/07 06:59:27;;;;;;;12.75;7.72;;;0.80;99.90;;;;;;12291035;28;20095;-88
2021/01/07 07:05:34;;;;;;;11.65;6.70;;;0.80;99.90;;;;;;12299538;28;20074;-87
2021/01/07 07:11:37;;;;;;;12.70;7.60;;;0.70;99.90;;;;;;12280330;28;20129;-88
2021/01/07 07:17:46;;;;;;;11.70;6.82;;;0.70;99.90;;;;;;12285316;28;20055;-88
2021/01/07 07:23:48;;;;;;;11.30;7.55;;;0.70;99.90;;;;;;12278240;28;20054;-84
2021/01/07 07:29:50;;;;;;;12.57;6.97;;;0.70;99.90;;;;;;12306968;28;20495;-87
2021/01/07 07:35:52;;;;;;;9.27;5.78;;;0.90;99.90;;;;;;12307425;28;20109;-87
2021/01/07 07:42:10;;;;;;;9.48;5.82;;;1.00;99.90;;;;;;12280654;28;20125;-87
2021/01/07 07:48:11;;;;;;;8.68;5.85;;;1.10;99.90;;;;;;12292394;28;20054;-86
2021/01/07 07:54:13;;;;;;;9.75;5.93;;;1.00;99.90;;;;;;12297021;28;20090;-87
2021/01/07 08:00:15;;;;;;;12.10;6.60;;;1.00;99.90;;;;;;12307120;28;20046;-86
2021/01/07 08:06:20;;;;;;;10.93;6.65;;;1.20;99.90;;;;;;12316601;28;20074;-87
2021/01/07 08:12:21;;;;;;;;;;;0.90;99.90;;;;;;12286780;28;20535;-86
2021/01/07 08:18:31;;;;;;;11.02;6.90;;;0.80;99.90;;;;;;12320691;28;19981;-87
2021/01/07 08:24:41;;;;;;;10.15;6.70;;;0.80;99.90;;;;;;12291316;28;20043;-87
2021/01/07 08:30:54;;;;;;;10.68;6.70;;;0.80;99.90;;;;;;12291672;28;20043;-87
2021/01/07 08:37:17;;;;;;;8.43;5.82;;;0.80;99.90;;;;;;12270075;28;20522;-86
2021/01/07 08:43:18;;;;;;;7.32;4.65;;;1.00;99.90;;;;;;12268106;28;20051;-86
2021/01/07 08:49:20;;;;;;;10.13;5.43;;;1.00;99.90;;;;;;12280422;28;20050;-86
2021/01/07 08:55:51;;;;;;;7.70;5.05;;;0.90;99.90;;;;;;12325695;28;20125;-86
2021/01/07 09:02:06;;;;;;;9.45;5.35;;;1.10;99.90;;;;;;12321460;28;20166;-86
2021/01/07 09:08:12;;;;;;;7.65;5.03;;;1.10;99.90;;;;;;12297959;28;20047;-87
2021/01/07 09:14:14;;;;;;;7.15;4.68;;;1.10;99.90;;;;;;12325947;28;20046;-86
2021/01/07 09:20:17;;;;;;;8.02;5.38;;;1.30;99.90;;;;;;12333244;28;20077;-87
2021/01/07 09:26:30;;;;;;;8.63;5.32;;;1.00;99.90;;;;;;12301404;28;20137;-87
2021/01/07 09:32:32;;;;;;;7.65;4.70;;;1.00;99.90;;;;;;12284097;28;20050;-87
2021/01/07 09:38:33;;;;;;;7.07;4.00;;;0.90;99.90;;;;;;12283872;28;20089;-87
2021/01/07 09:44:35;;;;;;;5.90;3.88;;;0.90;99.90;;;;;;12318410;28;20054;-86
2021/01/07 09:50:36;;;;;;;5.25;3.25;;;1.10;99.90;;;;;;12310586;28;20177;-87
2021/01/07 09:56:38;;;;;;;7.22;3.88;;;1.30;99.90;;;;;;12289057;28;20118;-87
2021/01/07 10:02:39;;;;;;;6.18;3.90;;;1.30;99.90;;;;;;12288125;28;20504;-87
2021/01/07 10:08:40;;;;;;;7.03;3.90;;;1.30;99.90;;;;;;12285709;28;20131;-87
2021/01/07 10:14:41;;;;;;;5.90;3.53;;;1.30;99.90;;;;;;12313904;28;20087;-86
2021/01/07 10:20:43;;;;;;;6.95;4.22;;;1.30;99.90;;;;;;12304839;28;20129;-87
2021/01/07 10:26:44;;;;;;;7.85;4.35;;;1.50;99.90;;;;;;12285037;28;20093;-87
2021/01/07 10:32:46;;;;;;;7.65;4.95;;;1.40;99.90;;;;;;12311361;28;20299;-88
2021/01/07 10:38:48;;;;;;;10.23;5.55;;;1.40;99.90;;;;;;12283016;28;20559;-87
2021/01/07 10:44:52;;;;;;;9.75;5.95;;;1.30;99.90;;;;;;12274215;28;20055;-87
2021/01/07 10:50:53;;;;;;;9.27;5.70;;;1.40;99.90;;;;;;12307693;28;20057;-88
2021/01/07 10:57:09;;;;;;;9.75;5.85;;;1.30;99.90;;;;;;12299606;28;20059;-88
2021/01/07 11:03:44;;;;;;;9.75;6.00;;;1.50;99.90;;;;;;12292278;28;20050;-87
2021/01/07 11:09:54;;;;;;;10.25;6.22;;;1.40;99.90;;;;;;12312775;28;20047;-87
2021/01/07 11:15:57;;;;;;;9.23;5.13;;;1.30;99.90;;;;;;12290014;28;20961;-87
2021/01/07 11:22:07;;;;;;;7.60;4.75;;;1.60;99.90;;;;;;12300290;28;20067;-88
2021/01/07 11:28:09;;;;;;;7.05;4.70;;;1.70;99.90;;;;;;12299737;28;20047;-87
2021/01/07 11:34:12;;;;;;;7.32;4.53;;;1.80;99.90;;;;;;12279310;28;20047;-87
2021/01/07 11:40:30;;;;;;;6.68;4.40;;;1.60;99.90;;;;;;12286977;28;20104;-88
2021/01/07 11:46:33;;;;;;;9.43;5.65;;;1.80;99.90;;;;;;12285342;28;20055;-87
2021/01/07 11:52:37;;;;;;;8.32;5.00;;;1.60;99.90;;;;;;12298665;28;20122;-87
2021/01/07 11:58:42;;;;;;;9.30;5.45;;;1.60;99.90;;;;;;12292293;28;20059;-87
2021/01/07 12:04:44;;;;;;;9.30;5.85;;;1.60;99.90;;;;;;12295310;28;20047;-87
2021/01/07 12:10:51;;;;;;;9.82;5.80;;;1.80;99.90;;;;;;12281862;28;20066;-88
2021/01/07 12:16:54;;;;;;;9.10;5.22;;;1.70;99.90;;;;;;12303597;28;20549;-86
2021/01/07 12:23:11;;;;;;;8.80;5.50;;;1.80;99.90;;;;;;12290652;28;20509;-87
2021/01/07 12:29:39;;;;;;;9.48;6.00;;;1.60;99.90;;;;;;12293150;28;20141;-87
2021/01/07 12:36:03;;;;;;;12.15;6.28;;;1.50;99.90;;;;;;12296527;28;20043;-88
2021/01/07 12:42:36;;;;;;;10.63;6.47;;;1.50;99.90;;;;;;12265607;28;20055;-87
2021/01/07 12:48:39;;;;;;;10.65;6.38;;;1.40;99.90;;;;;;12290808;28;20551;-88
2021/01/07 12:54:41;;;;;;;10.45;6.38;;;1.50;99.90;;;;;;12298341;28;20518;-89
2021/01/07 13:01:00;;;;;;;14.15;7.28;;;1.70;99.90;;;;;;12308133;28;20496;-88
2021/01/07 13:07:03;;;;;;;11.30;6.85;;;1.70;99.90;;;;;;12279985;28;20474;-89
2021/01/07 13:13:06;;;;;;;10.25;6.43;;;1.80;99.90;;;;;;12281253;28;20043;-89
2021/01/07 13:19:07;;;;;;;11.00;6.13;;;1.90;99.90;;;;;;12290220;28;20086;-90
2021/01/07 13:25:13;;;;;;;13.63;7.60;;;1.60;99.90;;;;;;12317549;28;20617;-90
2021/01/07 13:31:17;;;;;;;12.80;7.22;;;1.50;99.90;;;;;;12345114;28;20046;-90
2021/01/07 13:37:23;;;;;;;16.50;7.93;;;1.50;99.90;;;;;;12306633;28;20116;-89
2021/01/07 13:43:25;;;;;;;12.85;8.35;;;1.40;99.90;;;;;;12324598;28;20141;-90
2021/01/07 13:49:30;;;;;;;13.30;8.43;;;1.40;99.90;;;;;;12316298;28;20093;-90
2021/01/07 13:55:33;;;;;;;15.05;8.63;;;1.30;99.90;;;;;;12312836;28;20178;-88
2021/01/07 14:01:34;;;;;;;12.55;8.30;;;1.20;99.90;;;;;;12346621;28;20078;-90
2021/01/07 14:08:02;;;;;;;12.48;8.18;;;1.30;99.90;;;;;;12315032;28;20462;-90
2021/01/07 14:14:05;;;;;;;14.18;8.68;;;1.20;99.90;;;;;;12294672;28;20723;-89
2021/01/07 14:20:09;;;;;;;14.05;8.20;;;1.20;99.90;;;;;;12291844;28;20059;-89
2021/01/07 14:26:14;;;;;;;13.05;8.02;;;1.10;99.90;;;;;;12298423;28;20142;-89
2021/01/07 14:32:18;;;;;;;13.13;8.30;;;1.00;99.90;;;;;;12292346;28;20098;-89
2021/01/07 14:38:19;;;;;;;13.25;8.55;;;1.00;99.90;;;;;;12288074;28;20074;-91
2021/01/07 14:44:21;;;;;;;17.60;8.63;;;1.10;99.90;;;;;;12280714;28;20125;-89
2021/01/07 14:50:28;;;;;;;12.98;7.90;;;1.00;99.90;;;;;;12314458;28;20126;-88
2021/01/07 14:56:38;;;;;;;14.38;8.65;;;1.00;99.90;;;;;;12312412;28;20459;-90
2021/01/07 15:02:49;;;;;;;12.00;7.63;;;1.00;99.90;;;;;;12305875;28;20096;-89
2021/01/07 15:09:15;;;;;;;15.75;8.93;;;1.00;99.90;;;;;;12304331;28;20051;-89
2021/01/07 15:15:17;;;;;;;16.02;9.40;;;1.00;99.90;;;;;;12299139;28;20051;-88
2021/01/07 15:22:00;;;;;;;16.63;8.60;;;1.00;99.90;;;;;;12279022;28;20077;-88
2021/01/07 15:28:11;;;;;;;13.88;8.23;;;0.90;99.90;;;;;;12274386;28;20051;-89
2021/01/07 15:34:24;;;;;;;15.57;9.20;;;1.00;99.90;;;;;;12285687;28;20085;-89
2021/01/07 15:40:47;;;;;;;14.55;8.45;;;0.90;99.90;;;;;;12291904;28;20070;-89
2021/01/07 15:46:51;;;;;;;16.20;9.80;;;0.90;99.90;;;;;;12269947;28;20146;-89
2021/01/07 15:53:23;;;;;;;16.38;10.00;;;0.90;99.90;;;;;;12248254;28;20138;-89
2021/01/07 15:59:29;;;;;;;15.55;9.50;;;0.90;99.90;;;;;;12258309;28;20106;-88
2021/01/07 16:05:36;;;;;;;18.58;10.35;;;0.90;99.90;;;;;;12278421;28;20040;-89
2021/01/07 16:11:38;;;;;;;15.85;9.23;;;0.90;99.90;;;;;;12254111;28;20531;-88
2021/01/07 16:17:40;;;;;;;18.15;10.88;;;0.80;99.90;;;;;;12254101;28;20051;-88
2021/01/07 16:23:46;;;;;;;22.13;12.13;;;0.80;99.90;;;;;;12249574;28;20382;-88
2021/01/07 16:29:50;;;;;;;20.70;11.35;;;0.90;99.90;;;;;;12239872;28;20142;-89
2021/01/07 16:35:53;;;;;;;20.87;11.77;;;0.90;99.90;;;;;;12253058;28;20377;-88
2021/01/07 16:41:55;;;;;;;21.30;12.15;;;0.90;99.90;;;;;;12255237;28;20193;-88
2021/01/07 16:47:57;;;;;;;23.85;12.98;;;0.90;99.90;;;;;;12249890;29;20063;-89
2021/01/07 16:53:58;;;;;;;25.77;13.48;;;0.90;99.90;;;;;;12277010;28;20106;-88
2021/01/07 17:00:00;;;;;;;25.92;13.57;;;0.90;99.90;;;;;;12264453;29;20048;-89
2021/01/07 17:06:01;;;;;;;26.85;14.55;;;0.90;99.90;;;;;;12238086;28;20075;-88
2021/01/07 17:12:03;;;;;;;26.40;14.65;;;0.90;99.90;;;;;;12276126;28;20043;-89
2021/01/07 17:18:05;;;;;;;27.02;14.85;;;0.90;99.90;;;;;;12257583;28;20177;-89
2021/01/07 17:24:06;;;;;;;28.13;15.30;;;1.00;99.90;;;;;;12286532;28;20043;-89
2021/01/07 17:30:18;;;;;;;28.50;15.77;;;0.90;99.90;;;;;;12310339;28;20104;-87
2021/01/07 17:36:23;;;;;;;28.00;14.82;;;0.90;99.90;;;;;;12291913;28;20137;-88
2021/01/07 17:42:25;;;;;;;;;;;0.90;99.90;;;;;;12307920;28;20051;-89
2021/01/07 17:48:26;;;;;;;24.83;14.20;;;0.90;99.90;;;;;;12337717;28;20809;-89
2021/01/07 17:54:27;;;;;;;28.65;15.57;;;0.90;99.90;;;;;;12315231;28;20053;-89
2021/01/07 18:00:29;;;;;;;30.08;15.65;;;0.90;99.90;;;;;;12332555;28;20089;-88
2021/01/07 18:06:31;;;;;;;27.73;16.15;;;0.90;99.90;;;;;;12335899;28;20461;-88
2021/01/07 18:12:34;;;;;;;29.85;16.40;;;0.90;99.90;;;;;;12345771;28;20134;-89
2021/01/07 18:18:35;;;;;;;29.27;16.50;;;0.90;99.90;;;;;;12358521;28;20125;-89
2021/01/07 18:24:36;;;;;;;30.67;16.85;;;0.90;99.90;;;;;;12330607;28;20487;-90
2021/01/07 18:30:38;;;;;;;34.20;17.98;;;0.90;99.90;;;;;;12328170;28;20139;-88
2021/01/07 18:36:40;;;;;;;34.10;17.10;;;0.90;99.90;;;;;;12347358;28;20053;-89
2021/01/07 18:42:41;;;;;;;27.73;15.93;;;0.90;99.90;;;;;;12349920;28;20070;-88
2021/01/07 18:48:42;;;;;;;30.85;16.42;;;0.90;99.90;;;;;;12355080;28;20543;-88
2021/01/07 18:54:44;;;;;;;31.17;17.92;;;0.90;99.90;;;;;;12361450;28;20069;-87
2021/01/07 19:00:45;;;;;;;29.50;16.80;;;0.90;99.90;;;;;;12343636;28;20089;-87
2021/01/07 19:06:48;;;;;;;30.75;16.80;;;0.90;99.90;;;;;;12339544;28;20559;-88
2021/01/07 19:12:50;;;;;;;31.10;16.95;;;0.90;99.90;;;;;;12335708;28;20038;-87
2021/01/07 19:18:51;;;;;;;29.10;15.90;;;0.80;99.90;;;;;;12352320;28;20108;-88
2021/01/07 19:24:52;;;;;;;26.88;15.57;;;0.80;99.90;;;;;;12313532;28;20047;-88
2021/01/07 19:30:55;;;;;;;24.75;14.40;;;0.80;99.90;;;;;;12286964;28;20807;-88
2021/01/07 19:36:57;;;;;;;27.23;15.30;;;0.80;99.90;;;;;;12277200;28;20051;-87
2021/01/07 19:42:59;;;;;;;27.85;14.68;;;0.80;99.90;;;;;;12309165;28;20141;-88
2021/01/07 19:49:00;;;;;;;25.30;15.00;;;0.80;99.90;;;;;;12277396;28;20177;-88
2021/01/07 19:55:02;;;;;;;25.90;14.30;;;0.80;99.90;;;;;;12305436;28;20049;-87
2021/01/07 20:01:06;;;;;;;24.63;14.65;;;0.80;99.90;;;;;;12285159;28;20070;-88
2021/01/07 20:07:07;;;;;;;27.27;15.13;;;0.80;99.90;;;;;;12303221;28;20082;-88
2021/01/07 20:13:08;;;;;;;31.88;17.35;;;0.80;99.90;;;;;;12292650;28;20043;-88
2021/01/07 20:19:10;;;;;;;25.13;14.90;;;0.90;99.90;;;;;;12281610;28;20078;-88
2021/01/07 20:25:14;;;;;;;30.75;16.27;;;0.80;99.90;;;;;;12326586;28;20096;-87
2021/01/07 20:31:15;;;;;;;28.23;15.83;;;0.80;99.90;;;;;;12326437;28;20043;-86
2021/01/07 20:37:16;;;;;;;26.85;15.57;;;0.80;99.90;;;;;;12298227;28;20073;-88
2021/01/07 20:43:18;;;;;;;25.83;14.30;;;0.80;99.90;;;;;;12294447;28;20313;-88
2021/01/07 20:49:19;;;;;;;24.92;14.70;;;0.90;99.90;;;;;;12284150;28;20129;-88
2021/01/07 20:55:21;;;;;;;24.25;14.65;;;0.90;99.90;;;;;;12284644;28;20094;-87
2021/01/07 21:01:22;;;;;;;22.75;13.90;;;0.90;99.90;;;;;;12301837;28;20652;-88
2021/01/07 21:07:24;;;;;;;23.10;14.35;;;0.90;99.90;;;;;;12347377;28;20043;-88
2021/01/07 21:13:25;;;;;;;24.25;14.68;;;0.90;99.90;;;;;;12334510;28;20051;-88
2021/01/07 21:19:26;;;;;;;26.38;15.10;;;0.90;99.90;;;;;;12356430;28;20154;-88
2021/01/07 21:25:28;;;;;;;24.75;14.20;;;0.90;99.90;;;;;;12338277;28;20288;-89
2021/01/07 21:31:29;;;;;;;25.80;14.40;;;0.90;99.90;;;;;;12333482;28;20066;-88
2021/01/07 21:37:30;;;;;;;25.52;14.77;;;0.90;99.90;;;;;;12336356;28;20046;-88
2021/01/07 21:43:32;;;;;;;24.20;14.10;;;0.90;99.90;;;;;;12329151;28;20134;-88
2021/01/07 21:49:33;;;;;;;25.13;15.07;;;0.90;99.90;;;;;;12338230;28;20084;-89
2021/01/07 21:55:34;;;;;;;25.33;14.15;;;0.90;99.90;;;;;;12347127;28;20043;-88
2021/01/07 22:01:36;;;;;;;23.75;13.63;;;0.90;99.90;;;;;;12359863;28;20070;-88
2021/01/07 22:07:37;;;;;;;22.40;14.00;;;0.90;99.90;;;;;;12338810;28;20062;-88
2021/01/07 22:13:38;;;;;;;25.90;14.40;;;0.90;99.90;;;;;;12353938;28;20125;-89
2021/01/07 22:19:41;;;;;;;23.92;14.63;;;0.90;99.90;;;;;;12341750;28;20077;-88
2021/01/07 22:25:43;;;;;;;22.75;13.75;;;0.90;99.90;;;;;;12351207;28;20360;-88
2021/01/07 22:31:44;;;;;;;23.50;14.10;;;0.90;99.90;;;;;;12352542;28;20513;-88
2021/01/07 22:37:46;;;;;;;25.88;14.60;;;0.90;99.90;;;;;;12351909;28;20533;-88
2021/01/07 22:43:50;;;;;;;25.23;15.02;;;1.10;99.90;;;;;;12335033;28;20169;-87
2021/01/07 22:49:51;;;;;;;24.88;14.18;;;1.00;99.90;;;;;;12344258;28;20499;-88
2021/01/07 22:55:52;;;;;;;24.45;14.55;;;1.10;99.90;;;;;;12351791;28;20065;-88
2021/01/07 23:01:54;;;;;;;20.55;13.57;;;1.00;99.90;;;;;;12355017;28;20513;-88
2021/01/07 23:07:56;;;;;;;26.02;13.90;;;1.20;99.90;;;;;;12340244;28;20051;-88
2021/01/07 23:13:57;;;;;;;23.63;14.20;;;1.20;99.90;;;;;;12330298;28;20182;-88
2021/01/07 23:19:59;;;;;;;22.67;13.35;;;1.10;99.90;;;;;;12338026;28;20113;-88
2021/01/07 23:26:00;;;;;;;21.17;12.85;;;1.10;99.90;;;;;;12281923;28;20555;-87
2021/01/07 23:32:02;;;;;;;21.17;12.93;;;1.10;99.90;;;;;;12280154;28;20488;-88
2021/01/07 23:38:04;;;;;;;23.75;13.95;;;1.10;99.90;;;;;;12287413;28;20828;-87
2021/01/07 23:44:05;;;;;;;22.10;13.48;;;1.10;99.90;;;;;;12281235;28;20086;-87
2021/01/07 23:50:07;;;;;;;23.45;13.38;;;1.30;99.90;;;;;;12293541;28;20447;-87
2021/01/07 23:56:12;;;;;;;23.80;13.30;;;1.20;99.90;;;;;;12307742;28;20146;-88
